createdAt,value
2022-12-18T00:02:13.951Z,-1.36
2022-12-18T00:04:48.327Z,-1.40
2022-12-18T00:07:22.922Z,-1.29
2022-12-18T00:09:57.465Z,-1.21
2022-12-18T00:12:32.457Z,-1.02
2022-12-18T00:15:09.374Z,-0.88
2022-12-18T00:17:43.804Z,-0.97
2022-12-18T00:20:22.798Z,-0.77
2022-12-18T00:22:57.129Z,-0.74
2022-12-18T00:25:31.538Z,-1.02
2022-12-18T00:28:06.297Z,-0.85
2022-12-18T00:30:42.322Z,-0.80
2022-12-18T00:33:16.432Z,-1.04
2022-12-18T00:35:50.836Z,-0.98
2022-12-18T00:38:25.092Z,-0.97
2022-12-18T00:40:59.616Z,-1.13
2022-12-18T00:43:37.135Z,-1.04
2022-12-18T00:46:13.239Z,-1.14
2022-12-18T00:48:47.535Z,-1.07
2022-12-18T00:51:21.942Z,-1.14
2022-12-18T00:53:56.119Z,-1.12
2022-12-18T00:56:30.658Z,-1.20
2022-12-18T00:59:04.926Z,-1.30
2022-12-18T01:01:41.304Z,-1.19
2022-12-18T01:04:16.758Z,-1.26
2022-12-18T01:06:52.922Z,-1.30
2022-12-18T01:09:27.234Z,-1.27
2022-12-18T01:12:01.609Z,-1.20
2022-12-18T01:14:35.715Z,-1.14
2022-12-18T01:17:11.573Z,-1.07
2022-12-18T01:19:45.975Z,-1.01
2022-12-18T01:22:20.426Z,-0.92
2022-12-18T01:24:54.579Z,-0.90
2022-12-18T01:27:29.425Z,-0.85
2022-12-18T01:30:04.584Z,-0.88
2022-12-18T01:32:40.316Z,-0.81
2022-12-18T01:35:14.374Z,-0.71
2022-12-18T01:37:48.901Z,-0.64
2022-12-18T01:40:23.226Z,-0.70
2022-12-18T01:42:59.028Z,-0.77
2022-12-18T01:45:34.511Z,-1.07
2022-12-18T01:48:11.345Z,-1.27
2022-12-18T01:50:45.692Z,-1.24
2022-12-18T01:53:23.541Z,-1.36
2022-12-18T01:55:59.726Z,-1.59
2022-12-18T01:58:42.490Z,-1.54
2022-12-18T02:01:16.944Z,-1.35
2022-12-18T02:03:53.585Z,-1.49
2022-12-18T02:06:35.472Z,-1.31
2022-12-18T02:09:16.002Z,-1.51
2022-12-18T02:11:58.605Z,-1.51
2022-12-18T02:14:41.277Z,-1.50
2022-12-18T02:17:21.014Z,-1.38
2022-12-18T02:20:09.019Z,-1.53
2022-12-18T02:22:57.481Z,-1.64
2022-12-18T02:25:56.575Z,-1.33
2022-12-18T02:28:36.784Z,-1.19
2022-12-18T02:31:15.593Z,-0.86
2022-12-18T02:33:52.057Z,-0.95
2022-12-18T02:36:27.819Z,-0.91
2022-12-18T02:39:04.598Z,-0.73
2022-12-18T02:41:40.125Z,-1.25
2022-12-18T02:44:17.114Z,-1.48
2022-12-18T02:46:53.980Z,-1.73
2022-12-18T02:49:37.473Z,-1.58
2022-12-18T02:52:22.074Z,-1.44
2022-12-18T02:55:02.430Z,-1.47
2022-12-18T02:57:44.418Z,-1.40
2022-12-18T03:00:24.419Z,-1.33
2022-12-18T03:03:03.803Z,-1.30
2022-12-18T03:05:42.727Z,-1.36
2022-12-18T03:08:21.580Z,-1.38
2022-12-18T03:11:02.030Z,-1.33
2022-12-18T03:13:40.584Z,-1.34
2022-12-18T03:16:24.954Z,-1.16
2022-12-18T03:19:03.112Z,-1.17
2022-12-18T03:21:43.833Z,-1.56
2022-12-18T03:24:19.483Z,-1.78
2022-12-18T03:26:59.366Z,-1.76
2022-12-18T03:29:38.243Z,-2.01
2022-12-18T03:32:21.748Z,-2.08
2022-12-18T03:35:00.706Z,-1.98
2022-12-18T03:37:37.792Z,-1.98
2022-12-18T03:40:12.983Z,-1.90
2022-12-18T03:42:53.800Z,-1.69
2022-12-18T03:45:35.490Z,-1.63
2022-12-18T03:48:18.423Z,-1.43
2022-12-18T03:50:59.939Z,-1.33
2022-12-18T03:53:41.944Z,-1.58
2022-12-18T03:56:18.611Z,-1.95
2022-12-18T03:58:54.958Z,-2.05
2022-12-18T04:01:35.251Z,-1.86
2022-12-18T04:04:13.303Z,-1.85
2022-12-18T04:06:50.378Z,-1.81
2022-12-18T04:09:25.744Z,-1.78
2022-12-18T04:12:00.402Z,-1.60
2022-12-18T04:14:36.761Z,-1.59
2022-12-18T04:17:11.424Z,-1.49
2022-12-18T04:19:47.326Z,-1.35
2022-12-18T04:22:21.513Z,-1.25
2022-12-18T04:25:03.174Z,-1.46
2022-12-18T04:27:37.768Z,-1.58
2022-12-18T04:30:13.793Z,-2.08
2022-12-18T04:32:52.202Z,-2.35
2022-12-18T04:35:28.568Z,-2.53
2022-12-18T04:38:03.121Z,-2.55
2022-12-18T04:40:37.937Z,-2.46
2022-12-18T04:43:12.419Z,-2.26
2022-12-18T04:45:47.462Z,-2.09
2022-12-18T04:48:22.477Z,-1.95
2022-12-18T04:50:58.643Z,-1.85
2022-12-18T04:53:32.794Z,-1.77
2022-12-18T04:56:09.208Z,-1.79
2022-12-18T04:58:45.763Z,-1.85
2022-12-18T05:01:20.921Z,-2.06
2022-12-18T05:03:55.269Z,-2.15
2022-12-18T05:06:31.186Z,-2.07
2022-12-18T05:09:05.713Z,-2.03
2022-12-18T05:11:40.384Z,-1.95
2022-12-18T05:14:14.537Z,-1.98
2022-12-18T05:16:49.109Z,-1.89
2022-12-18T05:19:23.456Z,-1.87
2022-12-18T05:21:59.217Z,-2.32
2022-12-18T05:24:33.681Z,-2.27
2022-12-18T05:27:08.162Z,-2.26
2022-12-18T05:29:44.378Z,-2.11
2022-12-18T05:32:18.843Z,-2.04
2022-12-18T05:34:53.061Z,-2.01
2022-12-18T05:37:28.987Z,-2.11
2022-12-18T05:40:04.189Z,-2.08
2022-12-18T05:42:38.600Z,-2.09
2022-12-18T05:45:12.849Z,-2.15
2022-12-18T05:47:47.359Z,-2.13
2022-12-18T05:50:22.726Z,-2.15
2022-12-18T05:52:58.608Z,-1.98
2022-12-18T05:55:35.826Z,-2.02
2022-12-18T05:58:12.324Z,-2.16
2022-12-18T06:00:48.179Z,-2.16
2022-12-18T06:03:22.883Z,-2.17
2022-12-18T06:05:57.013Z,-2.24
2022-12-18T06:08:32.948Z,-2.09
2022-12-18T06:11:07.469Z,-2.05
2022-12-18T06:13:42.117Z,-1.93
2022-12-18T06:16:16.588Z,-2.26
2022-12-18T06:18:51.395Z,-2.29
2022-12-18T06:21:25.778Z,-2.33
2022-12-18T06:24:02.236Z,-2.39
2022-12-18T06:26:38.677Z,-2.28
2022-12-18T06:29:13.129Z,-2.20
2022-12-18T06:31:47.348Z,-2.33
2022-12-18T06:34:21.885Z,-2.61
2022-12-18T06:36:55.934Z,-2.53
2022-12-18T06:39:32.466Z,-2.57
2022-12-18T06:42:07.157Z,-2.39
2022-12-18T06:44:41.917Z,0.10
2022-12-18T06:47:16.099Z,3.13
2022-12-18T06:49:51.626Z,1.31
2022-12-18T06:52:25.779Z,-0.03
2022-12-18T06:55:01.651Z,-0.87
2022-12-18T06:57:36.008Z,-1.11
2022-12-18T07:00:11.421Z,-1.43
2022-12-18T07:02:45.936Z,-1.59
2022-12-18T07:05:20.494Z,-1.61
2022-12-18T07:07:55.103Z,-1.89
2022-12-18T07:10:30.975Z,-2.05
2022-12-18T07:13:05.141Z,-2.19
2022-12-18T07:15:39.638Z,-2.06
2022-12-18T07:18:13.902Z,-2.05
2022-12-18T07:20:49.013Z,-2.49
2022-12-18T07:23:23.285Z,-2.46
2022-12-18T07:26:03.271Z,-2.21
2022-12-18T07:28:39.204Z,-1.89
2022-12-18T07:31:16.201Z,-2.01
2022-12-18T07:33:51.411Z,-2.13
2022-12-18T07:36:26.142Z,-2.09
2022-12-18T07:39:00.313Z,-1.97
2022-12-18T07:41:42.499Z,-1.87
2022-12-18T07:44:23.407Z,2.32
2022-12-18T07:46:57.875Z,2.47
2022-12-18T07:49:32.000Z,0.62
2022-12-18T07:52:07.719Z,-0.35
2022-12-18T07:54:42.469Z,2.04
2022-12-18T07:57:48.869Z,3.11
2022-12-18T08:00:17.610Z,1.84
2022-12-18T08:02:52.324Z,0.50
2022-12-18T08:05:26.605Z,-0.27
2022-12-18T08:08:01.115Z,-0.25
2022-12-18T08:10:35.289Z,-0.46
2022-12-18T08:13:11.519Z,-0.26
2022-12-18T08:15:45.735Z,-0.26
2022-12-18T08:18:20.165Z,-0.48
2022-12-18T08:20:54.314Z,-0.59
2022-12-18T08:23:29.015Z,-0.61
2022-12-18T08:26:03.300Z,-0.68
2022-12-18T08:28:39.232Z,-0.42
2022-12-18T08:31:24.528Z,-0.62
2022-12-18T08:33:59.905Z,-0.85
2022-12-18T08:36:34.099Z,-0.96
2022-12-18T08:39:08.542Z,-0.88
2022-12-18T08:41:43.292Z,-0.86
2022-12-18T08:44:36.709Z,-0.60
2022-12-18T08:47:11.125Z,2.87
2022-12-18T08:49:45.864Z,1.04
2022-12-18T08:52:20.668Z,0.78
2022-12-18T08:54:55.040Z,0.37
2022-12-18T08:57:29.222Z,0.10
2022-12-18T09:00:05.814Z,0.17
2022-12-18T09:02:40.233Z,0.38
2022-12-18T09:05:15.015Z,0.28
2022-12-18T09:07:49.193Z,0.03
2022-12-18T09:10:24.010Z,0.16
2022-12-18T09:12:58.678Z,0.24
2022-12-18T09:15:34.535Z,0.15
2022-12-18T09:18:09.918Z,0.31
2022-12-18T09:20:44.742Z,0.40
2022-12-18T09:23:18.885Z,0.41
2022-12-18T09:25:53.360Z,0.50
2022-12-18T09:28:27.492Z,0.53
2022-12-18T09:31:10.790Z,0.87
2022-12-18T09:33:52.200Z,0.86
2022-12-18T09:36:26.716Z,0.92
2022-12-18T09:39:06.339Z,0.87
2022-12-18T09:41:47.928Z,0.89
2022-12-18T09:44:28.267Z,1.09
2022-12-18T09:47:12.440Z,1.30
2022-12-18T09:49:49.234Z,1.42
2022-12-18T09:52:29.362Z,1.56
2022-12-18T09:55:12.472Z,1.30
2022-12-18T09:57:53.697Z,1.46
2022-12-18T10:00:28.232Z,1.31
2022-12-18T10:03:12.374Z,1.58
2022-12-18T10:05:58.289Z,1.89
2022-12-18T10:08:44.222Z,2.09
2022-12-18T10:11:36.801Z,1.91
2022-12-18T10:14:22.761Z,2.21
2022-12-18T10:17:04.126Z,2.25
2022-12-18T10:19:50.331Z,2.40
2022-12-18T10:22:36.547Z,2.76
2022-12-18T10:25:21.469Z,2.72
2022-12-18T10:27:59.772Z,2.84
2022-12-18T10:30:34.233Z,3.01
2022-12-18T10:33:13.080Z,3.43
2022-12-18T10:35:53.546Z,3.19
2022-12-18T10:38:29.899Z,2.91
2022-12-18T10:41:06.484Z,2.93
2022-12-18T10:43:42.679Z,2.86
2022-12-18T10:46:21.442Z,2.95
2022-12-18T10:48:58.097Z,2.70
2022-12-18T10:51:36.909Z,3.05
2022-12-18T10:54:17.940Z,3.12
2022-12-18T10:56:52.649Z,3.10
2022-12-18T10:59:26.909Z,3.28
2022-12-18T11:02:01.459Z,3.17
2022-12-18T11:04:36.322Z,3.36
2022-12-18T11:07:12.321Z,3.52
2022-12-18T11:10:06.386Z,3.40
2022-12-18T11:12:41.989Z,3.49
2022-12-18T11:15:21.066Z,3.71
2022-12-18T11:17:55.935Z,3.48
2022-12-18T11:20:34.651Z,3.61
2022-12-18T11:23:15.455Z,3.41
2022-12-18T11:25:55.858Z,3.68
2022-12-18T11:28:38.616Z,3.81
2022-12-18T11:31:26.173Z,4.02
2022-12-18T11:34:28.073Z,3.68
2022-12-18T11:37:01.800Z,4.11
2022-12-18T11:39:42.823Z,4.13
2022-12-18T11:42:25.446Z,4.14
2022-12-18T11:45:03.213Z,4.02
2022-12-18T11:47:43.906Z,4.19
2022-12-18T11:50:21.406Z,4.39
2022-12-18T11:52:59.224Z,4.32
2022-12-18T11:55:50.461Z,4.47
2022-12-18T11:58:45.130Z,4.67
2022-12-18T12:01:43.855Z,4.91
2022-12-18T12:04:48.496Z,5.12
2022-12-18T12:07:39.278Z,5.00
2022-12-18T12:10:33.056Z,4.90
2022-12-18T12:13:36.504Z,5.28
2022-12-18T12:16:19.411Z,5.58
2022-12-18T12:19:06.200Z,5.82
2022-12-18T12:21:43.153Z,6.03
2022-12-18T12:24:39.487Z,6.38
2022-12-18T12:27:23.392Z,6.31
2022-12-18T12:30:08.700Z,6.49
2022-12-18T12:33:01.161Z,6.31
2022-12-18T12:35:46.634Z,6.43
2022-12-18T12:38:27.544Z,6.84
2022-12-18T12:41:05.531Z,6.87
2022-12-18T12:43:49.584Z,6.88
2022-12-18T12:46:28.789Z,7.27
2022-12-18T12:49:07.275Z,7.45
2022-12-18T12:51:45.586Z,7.24
2022-12-18T12:54:24.184Z,7.03
2022-12-18T12:57:08.077Z,7.21
2022-12-18T12:59:53.604Z,6.89
2022-12-18T13:02:35.741Z,5.96
2022-12-18T13:05:21.145Z,5.78
2022-12-18T13:08:04.938Z,5.59
2022-12-18T13:10:43.039Z,4.97
2022-12-18T13:13:20.616Z,4.40
2022-12-18T13:16:07.746Z,4.36
2022-12-18T13:18:51.373Z,4.26
2022-12-18T13:21:29.627Z,3.80
2022-12-18T13:24:18.147Z,3.63
2022-12-18T13:26:52.675Z,3.53
2022-12-18T13:29:47.634Z,3.55
2022-12-18T13:32:25.041Z,3.54
2022-12-18T13:35:43.062Z,3.37
2022-12-18T13:38:24.206Z,3.38
2022-12-18T13:40:58.984Z,3.19
2022-12-18T13:43:43.900Z,3.17
2022-12-18T13:46:28.021Z,3.13
2022-12-18T13:49:05.622Z,3.18
2022-12-18T13:51:44.485Z,3.17
2022-12-18T13:54:23.492Z,3.16
2022-12-18T13:56:57.724Z,3.03
2022-12-18T13:59:36.688Z,2.99
2022-12-18T14:02:17.332Z,2.93
2022-12-18T14:04:53.062Z,2.73
2022-12-18T14:07:35.923Z,2.84
2022-12-18T14:10:42.186Z,2.79
2022-12-18T14:13:17.949Z,2.85
2022-12-18T14:15:53.690Z,2.79
2022-12-18T14:18:39.121Z,2.80
2022-12-18T14:21:23.018Z,2.88
2022-12-18T14:24:19.506Z,2.79
2022-12-18T14:26:54.643Z,2.75
2022-12-18T14:29:30.442Z,2.69
2022-12-18T14:32:15.170Z,2.75
2022-12-18T14:34:53.263Z,2.73
2022-12-18T14:37:29.393Z,2.66
2022-12-18T14:40:11.289Z,2.66
2022-12-18T14:42:47.102Z,2.57
2022-12-18T14:45:45.418Z,2.54
2022-12-18T14:48:24.328Z,2.51
2022-12-18T14:51:04.073Z,2.30
2022-12-18T14:53:42.229Z,2.16
2022-12-18T14:56:22.162Z,2.01
2022-12-18T14:58:58.818Z,5.81
2022-12-18T15:01:35.530Z,8.06
2022-12-18T15:04:27.687Z,7.43
2022-12-18T15:07:17.221Z,5.56
2022-12-18T15:10:14.007Z,4.22
2022-12-18T15:12:51.993Z,3.06
2022-12-18T15:15:49.448Z,2.51
2022-12-18T15:18:34.525Z,2.21
2022-12-18T15:21:12.060Z,2.18
2022-12-18T15:23:49.811Z,1.81
2022-12-18T15:26:24.739Z,1.41
2022-12-18T15:29:01.037Z,1.31
2022-12-18T15:31:37.055Z,1.45
2022-12-18T15:34:16.127Z,1.46
2022-12-18T15:36:52.750Z,1.42
2022-12-18T15:39:27.343Z,1.34
2022-12-18T15:42:20.971Z,1.30
2022-12-18T15:44:56.830Z,1.35
2022-12-18T15:47:31.719Z,1.34
2022-12-18T15:50:07.304Z,1.20
2022-12-18T15:52:45.322Z,1.12
2022-12-18T15:55:39.523Z,1.14
2022-12-18T15:58:15.115Z,0.99
2022-12-18T16:00:52.327Z,2.18
2022-12-18T16:03:26.943Z,4.66
2022-12-18T16:06:03.214Z,6.21
2022-12-18T16:08:39.001Z,3.50
2022-12-18T16:11:38.983Z,2.42
2022-12-18T16:14:19.731Z,1.85
2022-12-18T16:16:57.221Z,1.67
2022-12-18T16:19:32.209Z,1.67
2022-12-18T16:22:07.077Z,1.12
2022-12-18T16:24:43.813Z,0.94
2022-12-18T16:27:18.222Z,1.01
2022-12-18T16:29:53.436Z,0.83
2022-12-18T16:32:29.197Z,0.73
2022-12-18T16:35:04.080Z,0.61
2022-12-18T16:37:38.573Z,0.68
2022-12-18T16:40:15.590Z,0.62
2022-12-18T16:42:49.850Z,0.71
2022-12-18T16:45:27.052Z,0.73
2022-12-18T16:48:02.984Z,0.63
2022-12-18T16:50:37.870Z,0.50
2022-12-18T16:53:12.284Z,0.28
2022-12-18T16:55:46.961Z,0.57
2022-12-18T16:58:21.571Z,0.67
2022-12-18T17:00:56.458Z,0.63
2022-12-18T17:03:32.330Z,0.52
2022-12-18T17:06:08.081Z,0.27
2022-12-18T17:08:42.523Z,0.39
2022-12-18T17:11:17.260Z,5.01
2022-12-18T17:13:54.966Z,2.57
2022-12-18T17:16:29.848Z,1.37
2022-12-18T17:19:05.909Z,1.03
2022-12-18T17:21:40.919Z,1.17
2022-12-18T17:24:16.031Z,1.02
2022-12-18T17:26:52.220Z,1.23
2022-12-18T17:29:26.733Z,4.14
2022-12-18T17:32:01.454Z,2.71
2022-12-18T17:34:37.809Z,1.69
2022-12-18T17:37:12.603Z,1.37
2022-12-18T17:39:47.706Z,0.91
2022-12-18T17:42:22.670Z,0.94
2022-12-18T17:44:57.049Z,0.59
2022-12-18T17:47:31.908Z,0.35
2022-12-18T17:50:11.406Z,0.13
2022-12-18T17:52:46.150Z,0.21
2022-12-18T17:55:20.440Z,0.23
2022-12-18T17:57:55.451Z,-0.22
2022-12-18T18:00:30.354Z,-0.31
2022-12-18T18:03:05.446Z,-0.22
2022-12-18T18:05:41.462Z,-0.10
2022-12-18T18:08:16.075Z,-0.42
2022-12-18T18:10:51.583Z,-0.44
2022-12-18T18:13:47.135Z,4.41
2022-12-18T18:16:22.076Z,2.44
2022-12-18T18:18:59.582Z,1.43
2022-12-18T18:21:38.993Z,0.99
2022-12-18T18:24:15.276Z,0.56
2022-12-18T18:26:49.838Z,0.34
2022-12-18T18:29:31.471Z,0.14
2022-12-18T18:32:06.533Z,-0.10
2022-12-18T18:34:41.117Z,-0.11
2022-12-18T18:37:17.226Z,-0.36
2022-12-18T18:39:52.417Z,-0.53
2022-12-18T18:42:29.054Z,-0.32
2022-12-18T18:45:04.416Z,-0.26
2022-12-18T18:47:38.904Z,-0.41
2022-12-18T18:50:13.756Z,-0.61
2022-12-18T18:52:49.756Z,3.25
2022-12-18T18:55:25.488Z,2.84
2022-12-18T18:58:00.336Z,1.14
2022-12-18T19:00:36.820Z,3.97
2022-12-18T19:03:12.460Z,2.79
2022-12-18T19:05:52.513Z,1.20
2022-12-18T19:08:30.991Z,0.29
2022-12-18T19:11:33.147Z,0.07
2022-12-18T19:14:11.214Z,-0.11
2022-12-18T19:16:45.968Z,-0.39
2022-12-18T19:19:21.138Z,-0.72
2022-12-18T19:21:56.195Z,-0.57
2022-12-18T19:24:32.217Z,-0.80
2022-12-18T19:27:08.059Z,-1.06
2022-12-18T19:29:42.441Z,-1.00
2022-12-18T19:32:17.508Z,-1.05
2022-12-18T19:34:51.966Z,-1.04
2022-12-18T19:37:27.182Z,-1.18
2022-12-18T19:40:06.667Z,-1.31
2022-12-18T19:42:47.130Z,-1.15
2022-12-18T19:45:22.102Z,-1.12
2022-12-18T19:48:02.629Z,-1.06
2022-12-18T19:50:42.454Z,-0.78
2022-12-18T19:53:17.261Z,-0.91
2022-12-18T19:55:53.118Z,-1.12
2022-12-18T19:58:27.892Z,-1.19
2022-12-18T20:01:05.782Z,-1.50
2022-12-18T20:03:51.540Z,-1.47
2022-12-18T20:06:29.555Z,-1.56
2022-12-18T20:09:07.739Z,-1.79
2022-12-18T20:11:43.395Z,-1.57
2022-12-18T20:14:23.203Z,-1.39
2022-12-18T20:16:58.231Z,-1.48
2022-12-18T20:19:35.188Z,-1.25
2022-12-18T20:22:09.631Z,-1.11
2022-12-18T20:24:44.447Z,-1.26
2022-12-18T20:27:22.119Z,-1.43
2022-12-18T20:29:58.937Z,-1.27
2022-12-18T20:32:37.051Z,-1.14
2022-12-18T20:35:12.198Z,-1.10
2022-12-18T20:37:50.398Z,-1.17
2022-12-18T20:40:26.561Z,-1.27
2022-12-18T20:43:02.462Z,-1.31
2022-12-18T20:45:37.288Z,-1.39
2022-12-18T20:48:14.516Z,-1.47
2022-12-18T20:50:59.400Z,-1.68
2022-12-18T20:53:38.565Z,-1.54
2022-12-18T20:56:21.114Z,-0.58
2022-12-18T20:59:00.597Z,5.30
2022-12-18T21:01:35.874Z,6.51
2022-12-18T21:04:11.634Z,3.88
2022-12-18T21:06:51.312Z,1.77
2022-12-18T21:09:27.322Z,0.99
2022-12-18T21:12:16.647Z,0.17
2022-12-18T21:14:52.506Z,-0.37
2022-12-18T21:17:27.053Z,-0.58
2022-12-18T21:20:03.038Z,-0.64
2022-12-18T21:22:38.152Z,-0.66
2022-12-18T21:25:12.336Z,-0.78
2022-12-18T21:27:46.742Z,-0.87
2022-12-18T21:30:22.550Z,-1.07
2022-12-18T21:32:57.509Z,-0.99
2022-12-18T21:35:32.129Z,-0.83
2022-12-18T21:38:06.997Z,-0.81
2022-12-18T21:40:41.315Z,-0.84
2022-12-18T21:43:33.654Z,-1.19
2022-12-18T21:46:09.339Z,-1.21
2022-12-18T21:48:44.564Z,-1.08
2022-12-18T21:51:19.052Z,-0.99
2022-12-18T21:53:53.467Z,-0.98
2022-12-18T21:56:44.723Z,-1.02
2022-12-18T21:59:20.956Z,-0.97
2022-12-18T22:01:58.637Z,-0.97
2022-12-18T22:04:33.082Z,-0.93
2022-12-18T22:07:07.905Z,-1.13
2022-12-18T22:09:43.638Z,-1.28
2022-12-18T22:12:35.688Z,-1.17
2022-12-18T22:15:21.174Z,-1.20
2022-12-18T22:18:00.113Z,-1.19
2022-12-18T22:20:34.921Z,-1.51
2022-12-18T22:23:09.487Z,-1.56
2022-12-18T22:25:43.906Z,-1.42
2022-12-18T22:28:35.692Z,-1.54
2022-12-18T22:31:10.795Z,-1.58
2022-12-18T22:33:46.408Z,-1.63
2022-12-18T22:36:21.484Z,-1.53
2022-12-18T22:38:57.419Z,-1.48
2022-12-18T22:41:31.841Z,-1.50
2022-12-18T22:44:07.206Z,-1.70
2022-12-18T22:46:47.013Z,-1.48
2022-12-18T22:49:28.254Z,-1.52
2022-12-18T22:52:03.058Z,-1.76
2022-12-18T22:54:37.324Z,-1.73
2022-12-18T22:57:11.788Z,-2.07
2022-12-18T22:59:46.031Z,-2.29
2022-12-18T23:02:20.910Z,-2.41
2022-12-18T23:04:56.557Z,-2.23
2022-12-18T23:07:30.972Z,-2.45
2022-12-18T23:10:06.404Z,-2.51
2022-12-18T23:12:40.901Z,-2.62
2022-12-18T23:15:15.200Z,-2.47
2022-12-18T23:17:52.397Z,-2.47
2022-12-18T23:20:28.800Z,-2.46
2022-12-18T23:23:03.209Z,-2.40
2022-12-18T23:25:37.298Z,-2.47
2022-12-18T23:28:11.968Z,-2.31
2022-12-18T23:30:46.300Z,-2.16
2022-12-18T23:33:20.783Z,-2.23
2022-12-18T23:36:01.200Z,-2.14
2022-12-18T23:38:36.493Z,-2.23
2022-12-18T23:41:12.636Z,-2.52
2022-12-18T23:43:47.003Z,-2.69
2022-12-18T23:46:25.170Z,-2.41
2022-12-18T23:49:00.432Z,-2.74
2022-12-18T23:51:36.007Z,-2.72
2022-12-18T23:54:11.127Z,-2.79
2022-12-18T23:56:45.201Z,-2.93
2022-12-18T23:59:25.247Z,-2.84
